Time;durP1;ratioP1;P1;durP2;ratioP2;P2;SDS_P1;SDS_P2;PMS_P1;PMS_P2;Temp;Humidity;BMP_temperature;BMP_pressure;BME280_temperature;BME280_humidity;BME280_pressure;Samples;Min_cycle;Max_cycle;Signal;HPM_P1;HPM_P2
2021/08/21 00:01:24;;;;;;;;;2.00;2.00;;;;;21.95;52.21;101284.59;5000850;28;48317;-79
2021/08/21 00:03:50;;;;;;;;;3.00;3.00;;;;;21.94;52.16;101281.03;5002300;28;45304;-80
2021/08/21 00:06:16;;;;;;;;;2.00;2.00;;;;;21.94;51.40;101282.88;5002560;28;45323;-80
2021/08/21 00:08:41;;;;;;;;;3.00;2.00;;;;;21.93;51.73;101278.41;5002314;28;45470;-78
2021/08/21 00:11:06;;;;;;;;;4.00;2.25;;;;;21.82;52.22;101271.91;5002232;28;46267;-79
2021/08/21 00:13:32;;;;;;;;;3.50;2.75;;;;;21.79;52.13;101269.41;5002117;28;45395;-79
2021/08/21 00:15:57;;;;;;;;;3.00;3.00;;;;;21.75;51.91;101250.69;5002312;28;45441;-79
2021/08/21 00:18:23;;;;;;;;;1.50;1.50;;;;;21.82;51.78;101258.31;5001965;28;45484;-79
2021/08/21 00:20:48;;;;;;;;;4.00;3.00;;;;;21.80;51.76;101251.22;5002208;28;45531;-79
2021/08/21 00:23:13;;;;;;;;;1.00;1.00;;;;;21.73;52.02;101249.94;5002095;28;45394;-79
2021/08/21 00:25:39;;;;;;;;;3.00;3.00;;;;;21.87;51.71;101271.56;5002319;28;45311;-79
2021/08/21 00:28:04;;;;;;;;;3.00;3.00;;;;;21.85;51.80;101262.63;5001812;28;45295;-78
2021/08/21 00:30:30;;;;;;;;;3.00;3.00;;;;;21.84;52.59;101263.63;5001013;28;46146;-79
2021/08/21 00:32:55;;;;;;;;;4.00;4.00;;;;;21.82;52.66;101252.88;5001620;28;45307;-78
2021/08/21 00:35:21;;;;;;;;;4.00;3.00;;;;;21.70;52.55;101239.28;5000881;28;45301;-79
2021/08/21 00:37:46;;;;;;;;;4.00;2.75;;;;;21.69;52.14;101240.28;5001866;28;45226;-79
2021/08/21 00:40:12;;;;;;;;;4.00;3.00;;;;;21.67;52.04;101239.50;5000596;28;47181;-78
2021/08/21 00:42:37;;;;;;;;;4.00;3.50;;;;;21.75;52.51;101250.69;5001686;28;45201;-79
2021/08/21 00:45:07;;;;;;;;;4.00;4.00;;;;;21.61;52.63;101229.97;5002164;28;45474;-79
2021/08/21 00:47:33;;;;;;;;;2.50;2.50;;;;;21.48;52.67;101199.22;5000090;28;45414;-79
2021/08/21 00:49:58;;;;;;;;;3.00;3.00;;;;;21.69;52.92;101241.16;5001626;28;46876;-78
2021/08/21 00:52:32;;;;;;;;;2.00;2.00;;;;;21.68;52.86;101242.13;5001614;28;45366;-79
2021/08/21 00:54:58;;;;;;;;;2.50;2.50;;;;;21.58;52.61;101228.31;5001849;28;45414;-79
2021/08/21 00:57:24;;;;;;;;;2.25;1.50;;;;;21.58;53.08;101235.59;5001468;28;45426;-79
2021/08/21 00:59:51;;;;;;;;;2.00;2.00;;;;;21.50;52.91;101218.97;5001466;28;46476;-79
2021/08/21 01:02:18;;;;;;;;;3.00;3.00;;;;;21.61;52.74;101248.97;5001032;28;45518;-79
2021/08/21 01:04:49;;;;;;;;;3.00;3.00;;;;;21.58;53.09;101238.31;5001821;28;45314;-79
2021/08/21 01:07:17;;;;;;;;;2.00;2.00;;;;;21.51;52.76;101235.16;5000087;28;45951;-78
2021/08/21 01:09:44;;;;;;;;;5.00;3.00;;;;;21.41;52.99;101212.31;5001415;28;45287;-79
2021/08/21 01:12:18;;;;;;;;;4.00;4.00;;;;;21.50;52.98;101235.28;5001432;28;45398;-78
2021/08/21 01:14:44;;;;;;;;;3.25;2.25;;;;;21.52;53.11;101236.03;5001499;28;45309;-79
2021/08/21 01:17:10;;;;;;;;;5.00;3.00;;;;;21.48;53.35;101227.22;5001261;28;45520;-78
2021/08/21 01:19:38;;;;;;;;;3.00;3.00;;;;;21.46;52.90;101224.59;5001058;28;45351;-78
2021/08/21 01:22:12;;;;;;;;;2.75;2.75;;;;;21.28;53.34;101206.88;5000044;28;45463;-78
2021/08/21 01:24:42;;;;;;;;;3.00;2.25;;;;;21.46;53.27;101234.59;5001151;28;45248;-79
2021/08/21 01:27:18;;;;;;;;;3.25;3.25;;;;;21.41;52.85;101234.06;5001274;28;45220;-78
2021/08/21 01:29:44;;;;;;;;;3.75;3.25;;;;;21.43;52.91;101238.41;5000928;28;46555;-78
2021/08/21 01:32:10;;;;;;;;;5.50;4.75;;;;;21.37;53.11;101227.97;5000984;28;46953;-78
2021/08/21 01:34:35;;;;;;;;;3.00;3.00;;;;;21.37;53.07;101218.97;5000903;28;45154;-79
2021/08/21 01:37:00;;;;;;;;;4.00;4.00;;;;;21.18;53.64;101195.78;4999886;28;45517;-78
2021/08/21 01:39:26;;;;;;;;;3.75;3.00;;;;;21.34;53.72;101224.59;5000729;28;46082;-78
2021/08/21 01:41:51;;;;;;;;;4.75;4.75;;;;;21.35;53.24;101223.59;5000999;28;45457;-78
2021/08/21 01:44:18;;;;;;;;;4.00;4.00;;;;;21.27;53.27;101218.75;5000865;28;45307;-78
2021/08/21 01:46:48;;;;;;;;;3.25;3.25;;;;;21.38;53.07;101234.25;5000637;28;45498;-78
2021/08/21 01:49:15;;;;;;;;;3.50;3.00;;;;;21.37;53.66;101222.53;5000457;28;47142;-79
2021/08/21 01:51:44;;;;;;;;;3.25;3.25;;;;;21.34;53.43;101217.31;5000826;28;45341;-79
2021/08/21 01:54:15;;;;;;;;;4.00;3.00;;;;;21.37;53.04;101221.69;5000824;28;45418;-79
2021/08/21 01:56:48;;;;;;;;;5.75;3.50;;;;;21.31;53.53;101212.09;5000651;28;45318;-78
2021/08/21 01:59:20;;;;;;;;;3.00;3.00;;;;;21.35;53.53;101213.63;5000766;28;46764;-78
2021/08/21 02:01:48;;;;;;;;;4.00;4.00;;;;;21.31;53.50;101209.38;5000440;28;45234;-78
2021/08/21 02:04:13;;;;;;;;;1.75;1.75;;;;;21.30;53.39;101215.81;5000649;28;45468;-78
2021/08/21 02:06:39;;;;;;;;;3.00;3.00;;;;;21.29;53.75;101205.91;5000424;28;45537;-79
2021/08/21 02:09:04;;;;;;;;;5.00;4.75;;;;;21.29;54.05;101217.63;5000522;28;46192;-79
2021/08/21 02:11:29;;;;;;;;;3.00;3.00;;;;;21.27;53.61;101216.88;5000567;28;45291;-78
2021/08/21 02:13:54;;;;;;;;;5.00;4.00;;;;;21.19;53.61;101191.25;5000544;28;45237;-78
2021/08/21 02:16:20;;;;;;;;;3.00;3.00;;;;;21.22;53.53;101193.75;4982643;28;46152;-78
2021/08/21 02:18:45;;;;;;;;;3.75;3.75;;;;;21.21;53.66;101192.00;5000396;28;45146;-78
2021/08/21 02:21:12;;;;;;;;;4.00;4.00;;;;;21.26;54.00;101196.13;5000277;28;45436;-79
2021/08/21 02:23:38;;;;;;;;;3.00;3.00;;;;;21.20;53.70;101191.16;5000530;28;45485;-79
2021/08/21 02:26:03;;;;;;;;;3.25;3.25;;;;;21.14;53.65;101180.72;5000285;28;45405;-79
2021/08/21 02:28:28;;;;;;;;;6.00;5.00;;;;;21.23;53.85;101199.09;5000249;28;46904;-78
2021/08/21 02:30:54;;;;;;;;;4.75;3.50;;;;;21.24;54.15;101205.38;4999912;28;45349;-78
2021/08/21 02:33:19;;;;;;;;;3.75;2.50;;;;;21.23;53.80;101215.38;5000346;28;45501;-78
2021/08/21 02:35:45;;;;;;;;;4.00;4.00;;;;;21.17;53.97;101202.22;5000174;28;45370;-79
2021/08/21 02:38:10;;;;;;;;;4.25;4.25;;;;;21.20;53.63;101209.25;4999009;28;45360;-79
2021/08/21 02:40:37;;;;;;;;;4.75;4.75;;;;;21.14;53.58;101188.84;4998990;28;45194;-79
2021/08/21 02:43:03;;;;;;;;;5.00;3.50;;;;;21.21;53.81;101203.72;5000373;28;45213;-78
2021/08/21 02:45:28;;;;;;;;;4.25;4.00;;;;;21.16;54.18;101197.75;5000035;28;45401;-79
2021/08/21 02:47:54;;;;;;;;;4.50;4.00;;;;;21.16;53.80;101194.19;4999904;28;45276;-78
2021/08/21 02:50:19;;;;;;;;;4.00;4.00;;;;;21.20;53.74;101201.13;4998731;28;46025;-78
2021/08/21 02:52:45;;;;;;;;;5.00;4.00;;;;;21.21;53.62;101194.72;5001461;28;45236;-78
2021/08/21 02:55:10;;;;;;;;;4.75;4.75;;;;;21.17;54.13;101182.34;5003536;28;45142;-79
2021/08/21 02:57:35;;;;;;;;;5.00;4.00;;;;;21.11;53.95;101172.78;5003440;28;46221;-78
2021/08/21 03:00:01;;;;;;;;;6.25;5.00;;;;;21.21;53.71;101194.72;5003342;28;45433;-79
2021/08/21 03:02:26;;;;;;;;;4.00;4.00;;;;;21.22;54.01;101197.34;5003168;28;45764;-79
2021/08/21 03:04:52;;;;;;;;;4.50;4.50;;;;;21.21;54.21;101187.44;5003451;28;45476;-78
2021/08/21 03:07:18;;;;;;;;;6.00;4.25;;;;;21.20;53.82;101187.53;5001944;28;46594;-78
2021/08/21 03:09:43;;;;;;;;;5.00;4.75;;;;;21.20;54.43;101185.72;5003135;28;45312;-78
2021/08/21 03:12:09;;;;;;;;;3.00;3.00;;;;;21.22;54.24;101191.03;5002277;28;45411;-78
2021/08/21 03:14:34;;;;;;;;;4.75;4.25;;;;;21.22;54.20;101182.91;5003514;28;45469;-78
2021/08/21 03:16:59;;;;;;;;;6.00;5.00;;;;;21.20;53.68;101185.72;5002843;28;46155;-79
2021/08/21 03:19:25;;;;;;;;;4.50;4.00;;;;;21.18;54.04;101179.50;5003057;28;45391;-78
2021/08/21 03:21:50;;;;;;;;;3.00;3.00;;;;;21.16;53.94;101177.91;5003482;28;45413;-78
2021/08/21 03:24:15;;;;;;;;;4.25;4.25;;;;;21.22;53.66;101182.91;5003036;28;45395;-78
2021/08/21 03:26:41;;;;;;;;;5.25;4.75;;;;;21.19;53.43;101175.81;5003169;28;45323;-79
2021/08/21 03:29:08;;;;;;;;;6.00;4.75;;;;;21.20;54.17;101182.13;5001624;28;45762;-79
2021/08/21 03:31:33;;;;;;;;;4.00;4.00;;;;;21.10;54.23;101158.34;5002745;28;45275;-78
2021/08/21 03:33:59;;;;;;;;;5.00;5.00;;;;;21.22;54.17;101178.31;5001391;28;45252;-76
2021/08/21 03:36:24;;;;;;;;;4.00;4.00;;;;;21.15;54.05;101166.19;5002730;28;45842;-77
2021/08/21 03:38:49;;;;;;;;;4.00;3.25;;;;;21.17;53.85;101171.50;5001644;28;45269;-76
2021/08/21 03:41:15;;;;;;;;;4.75;4.75;;;;;21.18;54.38;101176.78;5002850;28;45272;-76
2021/08/21 03:43:40;;;;;;;;;4.00;4.00;;;;;21.13;53.94;101167.25;5001585;28;45945;-77
2021/08/21 03:46:06;;;;;;;;;5.50;5.50;;;;;21.05;54.24;101156.94;5000968;28;46064;-76
2021/08/21 03:48:31;;;;;;;;;4.00;4.00;;;;;21.14;54.74;101171.72;5002685;28;45403;-76
2021/08/21 03:50:56;;;;;;;;;5.00;5.00;;;;;21.10;54.17;101166.50;5002657;28;45413;-76
2021/08/21 03:53:22;;;;;;;;;4.00;4.00;;;;;21.06;54.40;101156.81;5002646;28;45459;-76
2021/08/21 03:55:49;;;;;;;;;6.25;6.00;;;;;21.07;54.27;101165.84;5002141;28;46415;-76
2021/08/21 03:58:15;;;;;;;;;6.25;6.00;;;;;21.10;54.87;101169.19;5001258;28;45403;-76
2021/08/21 04:00:43;;;;;;;;;6.00;6.00;;;;;21.07;54.81;101168.56;5001067;28;45430;-76
2021/08/21 04:03:09;;;;;;;;;5.50;5.50;;;;;20.99;54.78;101155.50;5002307;28;45612;-76
2021/08/21 04:05:34;;;;;;;;;5.75;5.00;;;;;20.96;54.74;101153.00;5001209;28;45407;-76
2021/08/21 04:08:00;;;;;;;;;5.00;4.25;;;;;20.97;54.85;101152.03;5002397;28;45363;-75
2021/08/21 04:10:26;;;;;;;;;3.50;3.50;;;;;20.97;55.07;101160.19;5002247;28;45209;-75
2021/08/21 04:12:51;;;;;;;;;5.25;5.00;;;;;20.92;54.82;101151.50;5002439;28;45480;-76
2021/08/21 04:15:17;;;;;;;;;7.00;7.00;;;;;20.92;54.73;101152.34;5001989;28;45351;-76
2021/08/21 04:17:42;;;;;;;;;5.00;5.00;;;;;20.88;54.45;101136.38;5001853;28;45439;-76
2021/08/21 04:20:08;;;;;;;;;5.25;5.25;;;;;20.92;54.71;101154.22;5002202;28;45347;-76
2021/08/21 04:22:34;;;;;;;;;6.25;5.25;;;;;20.85;55.25;101150.19;5002364;28;45482;-75
2021/08/21 04:24:59;;;;;;;;;3.75;3.75;;;;;20.82;54.98;101151.25;5000732;28;46199;-76
2021/08/21 04:27:25;;;;;;;;;4.50;4.00;;;;;20.81;54.76;101151.38;5001993;28;45251;-76
2021/08/21 04:29:50;;;;;;;;;5.00;5.00;;;;;20.78;55.17;101144.31;5002108;28;45363;-76
2021/08/21 04:32:15;;;;;;;;;4.00;4.00;;;;;20.75;55.34;101144.53;5001745;28;45498;-76
2021/08/21 04:34:41;;;;;;;;;5.00;4.00;;;;;20.66;55.23;101131.59;5001887;28;46526;-76
2021/08/21 04:37:06;;;;;;;;;6.75;6.75;;;;;20.67;55.37;101136.91;5000864;28;45396;-76
2021/08/21 04:39:32;;;;;;;;;5.00;5.00;;;;;20.61;55.20;101128.28;5001952;28;45260;-76
2021/08/21 04:41:58;;;;;;;;;5.00;5.00;;;;;20.69;55.07;101145.78;5001903;28;45577;-76
2021/08/21 04:44:23;;;;;;;;;4.00;4.00;;;;;20.61;55.86;101126.44;5001658;28;45613;-76
2021/08/21 04:46:49;;;;;;;;;4.75;4.75;;;;;20.58;55.56;101126.66;5001516;28;45329;-75
2021/08/21 04:49:14;;;;;;;;;7.25;6.75;;;;;20.64;55.41;101144.38;5001874;28;45309;-76
2021/08/21 04:51:39;;;;;;;;;7.00;5.00;;;;;20.63;55.86;101148.94;5000661;28;45186;-76
2021/08/21 04:54:05;;;;;;;;;6.25;6.25;;;;;20.55;55.84;101143.16;5001618;28;45229;-75
2021/08/21 04:56:30;;;;;;;;;7.25;6.00;;;;;20.46;56.14;101139.19;5001473;28;46188;-75
2021/08/21 04:58:55;;;;;;;;;5.75;5.50;;;;;20.48;56.03;101136.38;5001690;28;45221;-76
2021/08/21 05:01:21;;;;;;;;;5.00;5.00;;;;;20.55;55.69;101148.56;5001591;28;46319;-75
2021/08/21 05:03:47;;;;;;;;;5.00;5.00;;;;;20.54;56.27;101144.09;5000137;28;46037;-75
2021/08/21 05:06:12;;;;;;;;;5.50;5.25;;;;;20.60;55.94;101154.56;5001416;28;45319;-75
2021/08/21 05:08:37;;;;;;;;;6.50;6.50;;;;;20.56;56.32;101155.72;5001691;28;45359;-76
2021/08/21 05:11:03;;;;;;;;;5.00;5.00;;;;;20.48;56.22;101139.97;5001309;28;45365;-76
2021/08/21 05:13:28;;;;;;;;;5.50;5.50;;;;;20.49;55.93;101146.25;5001221;28;45473;-75
2021/08/21 05:15:53;;;;;;;;;5.25;5.25;;;;;20.57;56.43;101172.88;5000861;28;45398;-76
2021/08/21 05:18:29;;;;;;;;;5.25;5.25;;;;;20.52;56.08;101162.34;5001184;28;45572;-75
2021/08/21 05:21:05;;;;;;;;;5.00;5.00;;;;;20.43;56.40;101147.56;5001280;28;45451;-75
2021/08/21 05:23:30;;;;;;;;;4.00;4.00;;;;;20.57;55.81;101160.19;5001337;28;45392;-76
2021/08/21 05:25:56;;;;;;;;;4.50;4.50;;;;;20.53;56.14;101156.81;5001234;28;45379;-75
2021/08/21 05:28:21;;;;;;;;;6.00;6.00;;;;;20.50;56.16;101148.00;5001053;28;45350;-75
2021/08/21 05:30:47;;;;;;;;;5.00;5.00;;;;;20.58;56.40;101166.47;4999547;28;46407;-76
2021/08/21 05:33:14;;;;;;;;;5.75;5.00;;;;;20.57;56.39;101160.19;5000942;28;45411;-76
2021/08/21 05:35:40;;;;;;;;;6.00;6.00;;;;;20.59;56.49;101171.78;5001060;28;45277;-75
2021/08/21 05:38:06;;;;;;;;;5.75;5.25;;;;;20.50;56.69;101151.59;5001344;28;45296;-75
2021/08/21 05:40:33;;;;;;;;;4.75;4.75;;;;;20.60;56.18;101168.09;5000907;28;45433;-78
2021/08/21 05:42:59;;;;;;;;;10.25;7.00;;;;;20.63;56.21;101183.31;5000814;28;45306;-78
2021/08/21 05:45:25;;;;;;;;;7.25;6.00;;;;;20.57;56.52;101176.44;5000648;28;45698;-78
2021/08/21 05:47:51;;;;;;;;;8.50;6.75;;;;;20.63;56.83;101188.75;4996583;28;45383;-78
2021/08/21 05:50:21;;;;;;;;;8.50;6.00;;;;;20.62;56.38;101179.72;4994414;28;45458;-78
2021/08/21 05:52:47;;;;;;;;;5.25;5.25;;;;;20.50;56.67;101161.56;4999315;28;46942;-78
2021/08/21 05:55:13;;;;;;;;;6.50;6.00;;;;;20.58;56.78;101171.88;5000956;28;45351;-78
2021/08/21 05:57:38;;;;;;;;;5.75;5.75;;;;;20.64;56.38;101180.50;5000537;28;45454;-78
2021/08/21 06:00:04;;;;;;;;;5.25;4.50;;;;;20.54;56.69;101160.38;5000811;28;45367;-78
2021/08/21 06:02:30;;;;;;;;;6.00;6.00;;;;;20.60;56.26;101170.81;5000145;28;46831;-78
2021/08/21 06:04:56;;;;;;;;;6.00;6.00;;;;;20.61;56.64;101179.81;5000427;28;45284;-78
2021/08/21 06:07:22;;;;;;;;;6.75;4.75;;;;;20.70;56.53;101187.38;5000661;28;45166;-78
2021/08/21 06:09:47;;;;;;;;;6.00;6.00;;;;;20.65;56.42;101175.97;5000639;28;45177;-78
2021/08/21 06:12:12;;;;;;;;;8.75;7.00;;;;;20.66;56.57;101177.69;5000474;28;45266;-78
2021/08/21 06:14:38;;;;;;;;;8.75;7.75;;;;;20.64;56.09;101183.22;5000541;28;45200;-78
2021/08/21 06:17:05;;;;;;;;;8.00;7.00;;;;;20.65;56.65;101197.66;5000326;28;45212;-77
2021/08/21 06:19:30;;;;;;;;;7.50;6.75;;;;;20.49;56.78;101162.53;5000488;28;45327;-78
2021/08/21 06:21:56;;;;;;;;;6.50;6.50;;;;;20.48;56.42;101163.50;5000328;28;45426;-78
2021/08/21 06:24:21;;;;;;;;;7.00;6.00;;;;;20.53;56.60;101172.19;5000135;28;46651;-77
2021/08/21 06:26:46;;;;;;;;;7.75;6.50;;;;;20.53;56.24;101178.50;4999842;28;45494;-78
2021/08/21 06:29:12;;;;;;;;;5.25;5.25;;;;;20.57;56.97;101190.00;4998869;28;45826;-78
2021/08/21 06:31:37;;;;;;;;;8.00;7.75;;;;;20.55;56.73;101181.13;4999985;28;45443;-78
2021/08/21 06:34:02;;;;;;;;;7.50;6.50;;;;;20.49;56.76;101168.81;4998827;28;45257;-78
2021/08/21 06:36:28;;;;;;;;;6.25;6.25;;;;;20.39;56.61;101150.56;5000478;28;45317;-78
2021/08/21 06:38:53;;;;;;;;;6.25;5.00;;;;;20.60;56.70;101173.53;5000359;28;45474;-78
2021/08/21 06:41:18;;;;;;;;;7.50;7.25;;;;;20.53;56.95;101174.91;5000018;28;45595;-78
2021/08/21 06:43:44;;;;;;;;;8.75;6.00;;;;;20.57;56.66;101172.88;5000009;28;45300;-78
2021/08/21 06:46:09;;;;;;;;;5.75;5.75;;;;;20.51;56.68;101169.59;5000067;28;45478;-78
2021/08/21 06:48:35;;;;;;;;;6.25;5.25;;;;;20.58;56.65;101170.06;5000025;28;45380;-78
2021/08/21 06:51:00;;;;;;;;;9.00;6.75;;;;;20.54;57.16;101168.50;4999856;28;45398;-78
2021/08/21 06:53:29;;;;;;;;;8.00;8.00;;;;;20.62;57.00;101170.72;5000047;28;45303;-78
2021/08/21 06:55:54;;;;;;;;;6.00;5.00;;;;;20.52;57.06;101152.34;4998726;28;45277;-77
2021/08/21 06:58:20;;;;;;;;;7.25;6.25;;;;;20.58;57.57;101164.63;4998587;28;45215;-78
2021/08/21 07:00:45;;;;;;;;;6.00;6.00;;;;;20.51;56.83;101153.34;4999429;28;45229;-77
2021/08/21 07:03:11;;;;;;;;;6.75;6.00;;;;;20.54;57.12;101152.25;4999971;28;45188;-78
2021/08/21 07:05:36;;;;;;;;;8.75;7.50;;;;;20.58;57.12;101161.94;4999862;28;45461;-78
2021/08/21 07:08:02;;;;;;;;;5.50;5.50;;;;;20.60;56.96;101156.38;4999731;28;45513;-78
2021/08/21 07:10:27;;;;;;;;;0.00;0.00;;;;;20.56;56.89;101153.00;4999717;28;45387;-77
2021/08/21 07:12:52;;;;;;;;;6.00;6.00;;;;;20.53;57.15;101145.97;4998640;28;45280;-77
2021/08/21 07:15:18;;;;;;;;;8.25;7.00;;;;;20.65;57.41;101162.41;4999502;28;45347;-78
2021/08/21 07:17:43;;;;;;;;;9.25;7.00;;;;;20.64;57.15;101166.94;4999585;28;45314;-78
2021/08/21 07:20:09;;;;;;;;;4.75;4.75;;;;;20.70;57.32;101176.53;4999488;28;45423;-77
2021/08/21 07:22:35;;;;;;;;;6.75;6.75;;;;;20.70;57.34;101177.38;4999547;28;45371;-78
2021/08/21 07:25:00;;;;;;;;;6.25;6.25;;;;;20.75;57.03;101174.38;4999786;28;45487;-78
2021/08/21 07:27:25;;;;;;;;;9.00;8.00;;;;;20.78;57.69;101176.88;4999618;28;45246;-77
2021/08/21 07:29:51;;;;;;;;;8.50;6.25;;;;;20.77;57.30;101168.84;4999125;28;45319;-77
2021/08/21 07:32:16;;;;;;;;;5.25;5.25;;;;;20.58;57.26;101142.06;4998001;28;45490;-78
2021/08/21 07:34:42;;;;;;;;;6.00;6.00;;;;;20.76;57.48;101162.53;4999565;28;45384;-77
2021/08/21 07:37:08;;;;;;;;;5.00;5.00;;;;;20.89;57.51;101181.56;4999703;28;45485;-78
2021/08/21 07:39:33;;;;;;;;;6.50;6.50;;;;;20.88;57.79;101187.94;5001598;28;45460;-78
2021/08/21 07:41:58;;;;;;;;;6.50;6.50;;;;;20.90;57.65;101184.16;5002849;28;45282;-78
2021/08/21 07:44:23;;;;;;;;;6.00;6.00;;;;;20.98;57.33;101183.63;5002798;28;45478;-78
2021/08/21 07:46:49;;;;;;;;;8.00;7.50;;;;;20.93;57.57;101164.06;5002681;28;45442;-78
2021/08/21 07:49:14;;;;;;;;;5.50;5.00;;;;;20.92;58.04;101159.63;5002376;28;46397;-78
2021/08/21 07:51:40;;;;;;;;;5.25;5.25;;;;;21.05;57.30;101165.94;5002738;28;45311;-78
2021/08/21 07:54:05;;;;;;;;;8.50;7.75;;;;;20.97;57.56;101135.75;5002667;28;45335;-77
2021/08/21 07:56:31;;;;;;;;;9.25;7.50;;;;;21.21;57.69;101171.16;5002673;28;45204;-78
2021/08/21 07:58:56;;;;;;;;;7.50;7.00;;;;;21.20;57.56;101163.09;5001075;28;47962;-78
2021/08/21 08:01:21;;;;;;;;;6.00;6.00;;;;;21.26;57.47;101168.13;5002466;28;45379;-78
2021/08/21 08:03:47;;;;;;;;;8.50;5.75;;;;;21.34;57.36;101176.59;5002379;28;45357;-78
2021/08/21 08:06:12;;;;;;;;;6.00;6.00;;;;;21.35;57.59;101172.91;5002472;28;45399;-78
2021/08/21 08:08:37;;;;;;;;;7.00;5.00;;;;;21.37;57.65;101164.66;5002221;28;45380;-78
2021/08/21 08:11:03;;;;;;;;;6.00;6.00;;;;;21.42;57.15;101170.63;5002302;28;45433;-78
2021/08/21 08:13:28;;;;;;;;;6.75;6.75;;;;;21.44;57.12;101166.81;5001763;28;45362;-78
2021/08/21 08:15:54;;;;;;;;;7.00;5.25;;;;;21.53;57.47;101178.03;5002217;28;45410;-79
2021/08/21 08:18:19;;;;;;;;;6.00;6.00;;;;;21.52;57.08;101171.72;5001870;28;46098;-78
2021/08/21 08:20:45;;;;;;;;;7.75;6.00;;;;;21.54;57.24;101163.47;5000885;28;45614;-78
2021/08/21 08:23:11;;;;;;;;;8.25;7.75;;;;;21.64;57.21;101170.84;5002160;28;45324;-78
2021/08/21 08:25:37;;;;;;;;;8.50;8.00;;;;;21.57;57.31;101153.25;5002111;28;45326;-78
2021/08/21 08:28:03;;;;;;;;;7.00;6.00;;;;;21.69;57.37;101165.06;5001862;28;46286;-78
2021/08/21 08:30:28;;;;;;;;;6.00;6.00;;;;;21.66;56.96;101149.00;5001886;28;45299;-79
2021/08/21 08:32:54;;;;;;;;;6.00;6.00;;;;;21.63;56.69;101138.34;5001893;28;45162;-79
2021/08/21 08:35:19;;;;;;;;;5.00;5.00;;;;;21.84;57.68;101163.09;5002192;28;45558;-79
2021/08/21 08:37:44;;;;;;;;;8.25;7.00;;;;;21.80;56.85;101150.69;5001845;28;45216;-79
2021/08/21 08:40:11;;;;;;;;;9.50;8.75;;;;;21.87;56.96;101156.53;5001932;28;45227;-80
2021/08/21 08:42:41;;;;;;;;;6.75;6.00;;;;;21.95;57.16;101165.00;5001805;28;45331;-79
2021/08/21 08:45:08;;;;;;;;;7.75;7.50;;;;;22.00;57.11;101163.72;5001940;28;45266;-80
2021/08/21 08:47:36;;;;;;;;;7.25;7.00;;;;;22.00;57.33;101157.38;5000080;28;47126;-79
2021/08/21 08:50:04;;;;;;;;;8.00;8.00;;;;;22.04;56.79;101158.91;5001092;28;45292;-79
2021/08/21 08:52:31;;;;;;;;;7.00;7.00;;;;;22.14;57.04;101172.69;5001738;28;45831;-79
2021/08/21 08:54:56;;;;;;;;;7.50;7.50;;;;;22.12;56.66;101167.38;5001631;28;45387;-79
2021/08/21 08:57:39;;;;;;;;;7.25;7.25;;;;;22.13;56.49;101160.06;5001440;28;46120;-79
2021/08/21 09:00:10;;;;;;;;;9.25;9.25;;;;;22.27;56.79;101169.91;5001585;28;45788;-80
2021/08/21 09:02:41;;;;;;;;;9.00;8.00;;;;;22.32;56.83;101175.88;5001559;28;45411;-79
2021/08/21 09:05:10;;;;;;;;;6.75;6.75;;;;;22.36;57.12;101178.28;5001368;28;45327;-79
2021/08/21 09:07:39;;;;;;;;;9.25;8.00;;;;;22.24;56.43;101151.13;5001156;28;45552;-80
2021/08/21 09:10:13;;;;;;;;;8.25;6.75;;;;;22.38;57.00;101162.69;5001349;28;45307;-80
2021/08/21 09:12:38;;;;;;;;;6.75;6.50;;;;;22.54;56.63;101186.03;5001475;28;45403;-79
2021/08/21 09:15:28;;;;;;;;;5.50;5.00;;;;;22.60;56.94;101171.94;5001123;28;45422;-79
2021/08/21 09:18:13;;;;;;;;;8.25;7.75;;;;;22.66;56.75;101174.22;5001154;28;45265;-79
2021/08/21 09:20:47;;;;;;;;;6.00;6.00;;;;;22.72;57.12;101170.13;5001415;28;45394;-79
2021/08/21 09:23:21;;;;;;;;;7.75;7.75;;;;;22.79;57.04;101178.69;5001241;28;45300;-79
2021/08/21 09:25:47;;;;;;;;;7.00;5.75;;;;;22.86;56.44;101174.53;5001391;28;45495;-79
2021/08/21 09:28:23;;;;;;;;;8.50;7.00;;;;;22.93;56.43;101173.91;5000757;28;46059;-80
2021/08/21 09:31:09;;;;;;;;;9.50;8.75;;;;;23.00;56.67;101177.03;5000716;28;45438;-80
2021/08/21 09:33:37;;;;;;;;;9.75;5.75;;;;;23.05;55.93;101176.69;4999944;28;45323;-80
2021/08/21 09:36:03;;;;;;;;;6.25;6.25;;;;;23.10;55.98;101172.66;5000931;28;46576;-81
2021/08/21 09:38:31;;;;;;;;;5.75;5.75;;;;;23.05;55.93;101154.91;5001033;28;46250;-81
2021/08/21 09:41:08;;;;;;;;;8.25;7.25;;;;;23.15;56.19;101157.81;5001135;28;45550;-81
2021/08/21 09:43:36;;;;;;;;;8.25;7.50;;;;;23.24;56.21;101160.66;5001306;28;45387;-78
2021/08/21 09:46:12;;;;;;;;;8.00;8.00;;;;;23.26;55.98;101152.38;5000818;28;45686;-78
2021/08/21 09:48:57;;;;;;;;;8.50;6.50;;;;;23.39;55.90;101157.69;5000623;28;46872;-77
2021/08/21 09:51:39;;;;;;;;;9.25;9.25;;;;;23.43;55.83;101159.19;5000772;28;45308;-78
2021/08/21 09:54:09;;;;;;;;;8.00;7.00;;;;;23.46;55.59;101148.06;4999699;28;45274;-79
2021/08/21 09:56:36;;;;;;;;;7.50;7.50;;;;;23.49;55.81;101140.50;5000817;28;45396;-77
2021/08/21 09:59:03;;;;;;;;;6.75;5.50;;;;;23.49;55.13;101135.06;5000428;28;45351;-80
2021/08/21 10:01:29;;;;;;;;;7.00;7.00;;;;;23.59;55.15;101145.19;5000020;28;45336;-78
2021/08/21 10:03:55;;;;;;;;;7.25;7.25;;;;;23.55;55.72;101136.41;5000187;28;45304;-79
2021/08/21 10:06:22;;;;;;;;;9.25;8.75;;;;;23.64;55.34;101138.38;5000804;28;45185;-79
2021/08/21 10:08:48;;;;;;;;;6.00;6.00;;;;;23.75;55.67;101144.81;5000292;28;46407;-78
2021/08/21 10:11:15;;;;;;;;;6.00;6.00;;;;;23.77;55.28;101149.16;5000538;28;45406;-79
2021/08/21 10:13:43;;;;;;;;;7.75;7.50;;;;;23.86;55.53;101153.03;5000396;28;45406;-78
2021/08/21 10:16:09;;;;;;;;;8.00;7.75;;;;;23.92;55.56;101149.78;5000296;28;45229;-78
2021/08/21 10:18:35;;;;;;;;;6.75;6.75;;;;;23.98;55.41;101149.28;5000162;28;46538;-78
2021/08/21 10:21:01;;;;;;;;;7.25;7.25;;;;;23.97;54.68;101144.84;5000454;28;45240;-79
2021/08/21 10:23:27;;;;;;;;;7.00;6.00;;;;;23.97;53.96;101136.66;5000411;28;45413;-78
2021/08/21 10:26:07;;;;;;;;;8.00;8.00;;;;;24.11;55.05;101151.00;4999090;28;45515;-78
2021/08/21 10:28:38;;;;;;;;;6.75;6.75;;;;;24.04;54.65;101137.00;5000219;28;45315;-79
2021/08/21 10:31:05;;;;;;;;;7.25;5.75;;;;;24.14;54.54;101150.72;4999820;28;45371;-79
2021/08/21 10:33:57;;;;;;;;;6.00;5.50;;;;;24.23;54.08;101139.06;5000341;28;45469;-79
2021/08/21 10:36:41;;;;;;;;;9.50;8.50;;;;;24.31;53.77;101150.19;5000079;28;45323;-80
2021/08/21 10:39:37;;;;;;;;;6.00;6.00;;;;;24.40;54.29;101145.81;4999954;28;46197;-79
2021/08/21 10:42:25;;;;;;;;;7.75;7.50;;;;;24.45;54.59;101137.25;4998970;28;45402;-78
2021/08/21 10:44:52;;;;;;;;;6.25;6.00;;;;;24.49;54.25;101138.69;5000452;28;45523;-80
2021/08/21 10:47:30;;;;;;;;;9.50;8.00;;;;;24.56;54.13;101139.97;4999611;28;45254;-78
2021/08/21 10:49:57;;;;;;;;;7.00;7.00;;;;;24.52;53.93;101127.53;4998980;28;47225;-79
2021/08/21 10:52:44;;;;;;;;;7.00;7.00;;;;;24.65;53.51;101144.63;4999899;28;45487;-79
2021/08/21 10:55:24;;;;;;;;;7.75;7.75;;;;;24.71;53.70;101141.38;5000139;28;45407;-77
2021/08/21 10:57:55;;;;;;;;;7.50;7.50;;;;;24.76;53.84;101135.53;4999905;28;45500;-80
2021/08/21 11:00:45;;;;;;;;;8.25;7.25;;;;;24.76;54.03;101127.34;4999490;28;46431;-78
2021/08/21 11:03:33;;;;;;;;;7.50;7.50;;;;;24.86;53.31;101128.25;5007563;28;45422;-78
2021/08/21 11:06:07;;;;;;;;;7.00;7.00;;;;;24.91;53.23;101136.06;4999880;28;45508;-78
2021/08/21 11:08:35;;;;;;;;;9.75;9.50;;;;;24.93;53.05;101142.25;4999729;28;45513;-79
2021/08/21 11:14:04;;;;;;;;;8.50;7.00;;;;;24.98;53.54;101125.47;5000780;28;45360;-79
2021/08/21 11:17:03;;;;;;;;;7.25;6.50;;;;;25.00;54.20;101127.03;5003241;28;45388;-79
2021/08/21 11:19:31;;;;;;;;;6.50;6.50;;;;;25.05;53.17;101124.78;5003102;28;45173;-79
2021/08/21 11:22:27;;;;;;;;;11.25;9.00;;;;;25.08;53.82;101132.69;5003035;28;45464;-80
2021/08/21 11:24:52;;;;;;;;;7.00;7.00;;;;;25.10;53.35;101122.50;5002850;28;45324;-78
2021/08/21 11:27:29;;;;;;;;;7.00;7.00;;;;;25.18;53.10;101123.72;5003146;28;45237;-79
2021/08/21 11:30:11;;;;;;;;;8.00;6.25;;;;;25.23;53.77;101126.91;5001609;28;45485;-80